• Join FlightAware (Why Join?)
  • Login
  • US Flag 
06:32PM EDT


 

Airport Tracker/Info


-or-


 

Live Flight TrackerFlight Track Log ✈ SKW4496 ✈ 01-Jul-2013 ✈ KOMA - KMSP

Flight Track Log - Related Links

Times and Time Zones

All times are in EDT time to prevent confusion due to time zone crossing. See the SKW4496 flight status page for this flight to view local times or setup timezone preferences in your user account.

Time Position Orientation Groundspeed Altitude Reporting Facility
EDT Latitude Longitude Course Direction KTS MPH feet Rate Location/Type
04:11PM 41.3206 -95.9000 44° Northeast 148 170 1,700  Level Minneapolis Center
04:11PM 41.3467 -95.8942 10° North 162 186 2,900 2,220 Climbing Minneapolis Center
04:12PM 41.4103 -95.8514 27° Northeast 220 253 5,600 2,820 Climbing Minneapolis Center
04:13PM 41.4708 -95.8017 32° Northeast 239 275 8,800 2,760 Climbing Minneapolis Center
04:14PM 41.6082 -95.5235 42° Northeast  Level FlightAware Approximate
04:15PM 41.6845 -95.4316 48° Northeast  Level FlightAware Approximate
04:15PM 41.5431 -95.7200 40° Northeast 270 311 11,900  Level Minneapolis Center
04:16PM 41.7559 -95.3331 44° Northeast  Level FlightAware Approximate
04:16PM 41.6039 -95.6394 45° Northeast 301 346 14,800  Level Minneapolis Center
04:17PM 41.6672 -95.5564 44° Northeast 313 360 17,500 2,340 Climbing Minneapolis Center
04:18PM 41.7328 -95.4700 45° Northeast 328 377 19,700 2,280 Climbing Minneapolis Center
04:19PM 41.8144 -95.3631 44° Northeast 341 392 22,300 2,160 Climbing Minneapolis Center
04:20PM 41.8856 -95.2694 44° Northeast 354 407 24,200 1,260 Climbing Minneapolis Center
04:21PM 41.9600 -95.1714 44° Northeast 371 427 25,000 360 Climbing Minneapolis Center
04:22PM 42.0389 -95.0667 45° Northeast 393 452 25,000  Level Minneapolis Center
04:23PM 42.1192 -94.9594 45° Northeast 404 465 25,000  Level Minneapolis Center
04:24PM 42.2025 -94.8486 45° Northeast 417 480 25,000  Level Minneapolis Center
04:25PM 42.3017 -94.7156 45° Northeast 420 483 25,000  Level Minneapolis Center
04:26PM 42.4025 -94.5786 45° Northeast 426 490 25,000  Level Minneapolis Center
04:27PM 42.4778 -94.4761 45° Northeast 426 490 25,000  Level Minneapolis Center
04:28PM 42.5736 -94.3450 45° Northeast 411 473 25,000  Level Minneapolis Center
04:29PM 42.6325 -94.2681 44° Northeast 381 438 25,000  Level Minneapolis Center
04:30PM 42.7256 -94.1683 38° Northeast 361 415 25,000  Level Minneapolis Center
04:31PM 42.8033 -94.0831 39° Northeast 361 415 25,000  Level Minneapolis Center
04:33PM 42.8811 -93.9981 39° Northeast 360 414 25,000  Level Minneapolis Center
04:34PM 42.9731 -93.8969 39° Northeast 356 410 25,000  Level Minneapolis Center
04:35PM 43.0514 -93.8203 36° Northeast 352 405 25,000  Level Minneapolis Center
04:36PM 43.1656 -93.7856 13° North 354 407 25,000  Level Minneapolis Center
04:37PM 43.2611 -93.7589 11° North 354 407 25,000  Level Minneapolis Center
04:38PM 43.3583 -93.7297 12° North 357 411 25,000  Level Minneapolis Center
04:39PM 43.4742 -93.6942 13° North 357 411 25,000  Level Minneapolis Center
04:40PM 43.5617 -93.6683 12° North 358 412 25,000  Level Minneapolis Center
04:41PM 43.6589 -93.6383 13° North 357 411 25,000 -1,260 Level Minneapolis Center
04:42PM 43.7756 -93.6031 12° North 358 412 22,400 -2,580 Descending Minneapolis Center
04:43PM 43.8700 -93.5739 13° North 351 404 19,700 -2,280 Descending Minneapolis Center
04:44PM 43.9628 -93.5458 12° North 344 396 17,300 -2,400 Descending Minneapolis Center
04:45PM 44.0689 -93.5131 13° North 321 369 14,300 -2,340 Descending Minneapolis Center
04:46PM 44.1342 -93.4933 12° North 305 351 12,500 -1,620 Descending Minneapolis Center
04:47PM 44.2400 -93.4561 14° North 280 322 11,000 -780 Descending Minneapolis Center
04:48PM 44.3103 -93.4081 26° Northeast 281 323 10,900 -540 Descending Minneapolis Center
04:49PM 44.3814 -93.3700 21° North 277 319 9,900 -1,260 Descending Minneapolis Center
04:51PM 44.4511 -93.3328 21° North 269 310 8,300 -1,440 Descending Minneapolis Center
04:52PM 44.5206 -93.2956 21° North 268 308 7,000 -1,080 Descending Minneapolis Center
04:53PM 44.5928 -93.2561 21° North 228 262 6,100 -1,020 Descending Minneapolis Center
04:54PM 44.6500 -93.2253 21° North 221 254 4,900 -1,080 Descending Minneapolis Center
04:55PM 44.7011 -93.1986 20° North 202 232 3,900 -900 Descending Minneapolis Center
04:56PM 44.7478 -93.2078 352° North 178 205 3,100 -780 Descending Minneapolis Center